createdAt,value
2018-04-22T00:00:29.569Z,15.60
2018-04-22T00:02:57.509Z,15.60
2018-04-22T00:05:25.328Z,15.50
2018-04-22T00:07:53.308Z,15.50
2018-04-22T00:10:21.889Z,15.40
2018-04-22T00:12:49.950Z,15.40
2018-04-22T00:15:17.707Z,15.40
2018-04-22T00:17:45.507Z,15.40
2018-04-22T00:20:14.228Z,15.30
2018-04-22T00:22:42.267Z,15.30
2018-04-22T00:25:11.088Z,15.30
2018-04-22T00:27:39.207Z,15.30
2018-04-22T00:30:07.156Z,15.30
2018-04-22T00:32:35.228Z,15.30
2018-04-22T00:35:03.329Z,15.30
2018-04-22T00:37:31.374Z,15.20
2018-04-22T00:39:59.249Z,15.20
2018-04-22T00:42:27.388Z,15.20
2018-04-22T00:44:55.172Z,15.20
2018-04-22T00:47:23.770Z,15.10
2018-04-22T00:49:51.710Z,15.10
2018-04-22T00:54:51.511Z,15.10
2018-04-22T00:57:19.410Z,15.00
2018-04-22T00:59:47.532Z,15.00
2018-04-22T01:02:15.449Z,14.90
2018-04-22T01:04:43.389Z,14.90
2018-04-22T01:07:11.291Z,14.90
2018-04-22T01:09:39.349Z,14.80
2018-04-22T01:12:07.329Z,14.80
2018-04-22T01:14:35.310Z,14.70
2018-04-22T01:17:03.413Z,14.70
2018-04-22T01:19:31.511Z,14.70
2018-04-22T01:21:59.370Z,14.70
2018-04-22T01:24:27.231Z,14.70
2018-04-22T01:26:55.033Z,14.60
2018-04-22T01:29:22.934Z,14.60
2018-04-22T01:31:50.753Z,14.50
2018-04-22T01:34:18.881Z,14.50
2018-04-22T01:36:46.634Z,14.50
2018-04-22T01:41:46.416Z,14.50
2018-04-22T01:44:14.802Z,14.50
2018-04-22T01:46:42.857Z,14.50
2018-04-22T01:49:10.695Z,14.50
2018-04-22T01:51:38.455Z,14.40
2018-04-22T01:54:06.355Z,14.40
2018-04-22T01:56:34.234Z,14.40
2018-04-22T01:59:02.174Z,14.40
2018-04-22T02:01:29.976Z,14.30
2018-04-22T02:03:57.916Z,14.30
2018-04-22T02:06:25.695Z,14.20
2018-04-22T02:08:53.535Z,14.20
2018-04-22T02:11:21.684Z,14.10
2018-04-22T02:13:49.694Z,14.20
2018-04-22T02:16:17.675Z,14.20
2018-04-22T02:18:45.855Z,14.20
2018-04-22T02:21:13.655Z,14.20
2018-04-22T02:23:42.395Z,14.20
2018-04-22T02:26:10.376Z,14.10
2018-04-22T02:28:38.236Z,14.20
2018-04-22T02:31:06.234Z,14.10
2018-04-22T02:33:35.653Z,14.00
2018-04-22T02:36:03.634Z,14.00
2018-04-22T02:38:31.554Z,13.90
2018-04-22T02:41:00.250Z,13.80
2018-04-22T02:43:28.163Z,13.80
2018-04-22T02:45:56.034Z,13.70
2018-04-22T02:48:24.030Z,13.70
2018-04-22T02:50:51.990Z,13.70
2018-04-22T02:53:19.929Z,13.70
2018-04-22T02:55:47.916Z,13.70
2018-04-22T02:58:16.050Z,13.60
2018-04-22T03:00:43.970Z,13.60
2018-04-22T03:03:11.850Z,13.60
2018-04-22T03:05:40.469Z,13.60
2018-04-22T03:08:08.429Z,13.60
2018-04-22T03:10:36.335Z,13.60
2018-04-22T03:13:04.970Z,13.50
2018-04-22T03:15:32.729Z,13.50
2018-04-22T03:18:01.389Z,13.40
2018-04-22T03:20:29.488Z,13.30
2018-04-22T03:22:57.429Z,13.40
2018-04-22T03:25:25.308Z,13.40
2018-04-22T03:27:53.188Z,13.40
2018-04-22T03:30:20.949Z,13.30
2018-04-22T03:32:48.949Z,13.30
2018-04-22T03:35:16.889Z,13.30
2018-04-22T03:37:45.009Z,13.20
2018-04-22T03:40:12.949Z,13.20
2018-04-22T03:42:40.710Z,13.20
2018-04-22T03:45:08.750Z,13.20
2018-04-22T03:47:36.530Z,13.20
2018-04-22T03:50:04.472Z,13.20
2018-04-22T03:52:32.619Z,13.30
2018-04-22T03:55:00.636Z,13.30
2018-04-22T03:57:28.510Z,13.30
2018-04-22T03:59:56.516Z,13.30
2018-04-22T04:02:24.550Z,13.30
2018-04-22T04:04:52.450Z,13.30
2018-04-22T04:07:20.411Z,13.40
2018-04-22T04:09:48.330Z,13.40
2018-04-22T04:12:16.251Z,13.40
2018-04-22T04:14:44.151Z,13.40
2018-04-22T04:17:12.092Z,13.50
2018-04-22T04:19:51.991Z,13.50
2018-04-22T04:22:31.730Z,13.50
2018-04-22T04:28:18.955Z,13.70
2018-04-22T04:30:46.849Z,14.30
2018-04-22T04:33:14.710Z,15.10
2018-04-22T04:35:42.831Z,15.90
2018-04-22T04:38:11.090Z,16.70
2018-04-22T04:40:38.969Z,17.40
2018-04-22T04:43:06.775Z,17.80
2018-04-22T04:45:34.670Z,18.50
2018-04-22T04:48:02.610Z,19.30
2018-04-22T04:50:30.430Z,20.00
2018-04-22T04:52:58.330Z,20.60
2018-04-22T04:55:26.470Z,21.20
2018-04-22T04:57:54.938Z,21.60
2018-04-22T05:00:22.645Z,22.00
2018-04-22T05:02:50.476Z,22.30
2018-04-22T05:05:18.316Z,22.60
2018-04-22T05:07:46.199Z,22.70
2018-04-22T05:10:14.057Z,22.90
2018-04-22T05:12:41.895Z,23.30
2018-04-22T05:15:10.035Z,23.70
2018-04-22T05:17:37.835Z,23.90
2018-04-22T05:20:05.715Z,24.00
2018-04-22T05:22:34.295Z,23.80
2018-04-22T05:25:02.177Z,23.80
2018-04-22T05:27:30.079Z,23.80
2018-04-22T05:29:57.971Z,24.00
2018-04-22T05:32:25.952Z,24.60
2018-04-22T05:34:53.811Z,25.00
2018-04-22T05:37:23.251Z,24.80
2018-04-22T05:39:51.170Z,24.90
2018-04-22T05:42:19.271Z,25.60
2018-04-22T05:44:47.411Z,26.40
2018-04-22T05:47:15.249Z,27.10
2018-04-22T05:49:43.090Z,27.80
2018-04-22T05:52:10.997Z,28.40
2018-04-22T05:54:38.813Z,28.30
2018-04-22T05:57:06.669Z,28.20
2018-04-22T05:59:34.569Z,28.80
2018-04-22T06:02:02.413Z,29.40
2018-04-22T06:04:30.454Z,29.90
2018-04-22T06:06:58.291Z,30.60
2018-04-22T06:09:27.072Z,29.00
2018-04-22T06:11:54.871Z,28.90
2018-04-22T06:14:23.232Z,28.10
2018-04-22T06:16:51.359Z,27.80
2018-04-22T06:19:19.257Z,27.50
2018-04-22T06:21:48.773Z,27.40
2018-04-22T06:24:16.973Z,27.10
2018-04-22T06:26:45.132Z,26.80
2018-04-22T06:29:13.011Z,26.50
2018-04-22T06:31:41.711Z,26.30
2018-04-22T06:34:09.511Z,26.20
2018-04-22T06:36:37.431Z,26.10
2018-04-22T06:39:05.457Z,25.90
2018-04-22T06:41:33.311Z,25.70
2018-04-22T06:44:01.551Z,25.50
2018-04-22T06:46:29.492Z,25.50
2018-04-22T06:48:57.896Z,25.40
2018-04-22T06:51:26.130Z,25.30
2018-04-22T06:53:54.431Z,25.30
2018-04-22T06:56:22.649Z,25.30
2018-04-22T06:58:50.533Z,25.30
2018-04-22T07:01:18.731Z,25.30
2018-04-22T07:03:46.531Z,25.10
2018-04-22T07:06:14.549Z,25.10
2018-04-22T07:08:42.569Z,25.20
2018-04-22T07:11:10.409Z,25.20
2018-04-22T07:13:38.651Z,25.20
2018-04-22T07:16:06.711Z,25.30
2018-04-22T07:18:35.030Z,25.30
2018-04-22T07:21:03.410Z,25.30
2018-04-22T07:23:31.211Z,25.30
2018-04-22T07:25:59.030Z,25.40
2018-04-22T07:28:26.929Z,25.50
2018-04-22T07:30:55.630Z,25.60
2018-04-22T07:33:24.390Z,25.80
2018-04-22T07:35:52.370Z,25.80
2018-04-22T07:38:20.438Z,25.90
2018-04-22T07:40:48.376Z,26.00
2018-04-22T07:43:16.436Z,26.10
2018-04-22T07:45:44.376Z,26.20
2018-04-22T07:48:12.536Z,26.20
2018-04-22T07:50:40.749Z,26.20
2018-04-22T07:53:08.549Z,26.20
2018-04-22T07:55:37.428Z,26.30
2018-04-22T07:58:05.472Z,26.30
2018-04-22T08:00:33.179Z,26.40
2018-04-22T08:03:01.178Z,26.50
2018-04-22T08:05:29.075Z,26.60
2018-04-22T08:07:57.140Z,26.60
2018-04-22T08:10:25.032Z,26.90
2018-04-22T08:12:54.833Z,26.90
2018-04-22T08:15:22.713Z,26.90
2018-04-22T08:17:50.994Z,26.90
2018-04-22T08:20:18.754Z,26.90
2018-04-22T08:22:47.413Z,27.10
2018-04-22T08:25:15.293Z,27.20
2018-04-22T08:27:43.041Z,27.20
2018-04-22T08:30:10.751Z,27.20
2018-04-22T08:32:38.436Z,27.20
2018-04-22T08:35:06.131Z,27.30
2018-04-22T08:37:33.844Z,27.50
2018-04-22T08:40:01.570Z,27.60
2018-04-22T08:42:29.291Z,27.70
2018-04-22T08:44:57.028Z,27.80
2018-04-22T08:47:25.494Z,27.90
2018-04-22T08:49:53.358Z,27.90
2018-04-22T08:52:21.272Z,27.90
2018-04-22T08:54:49.671Z,27.90
2018-04-22T08:57:17.493Z,28.00
2018-04-22T08:59:45.800Z,28.00
2018-04-22T09:02:15.175Z,27.90
2018-04-22T09:04:43.135Z,28.00
2018-04-22T09:07:11.122Z,27.80
2018-04-22T09:09:39.354Z,27.80
2018-04-22T09:12:07.417Z,27.80
2018-04-22T09:14:35.315Z,27.60
2018-04-22T09:17:03.336Z,27.50
2018-04-22T09:19:31.175Z,27.60
2018-04-22T09:21:59.138Z,27.70
2018-04-22T09:24:27.055Z,27.80
2018-04-22T09:26:54.803Z,27.90
2018-04-22T09:29:22.695Z,27.70
2018-04-22T09:31:50.681Z,27.80
2018-04-22T09:34:18.454Z,28.00
2018-04-22T09:36:47.414Z,28.00
2018-04-22T09:39:15.777Z,28.00
2018-04-22T09:41:43.614Z,27.90
2018-04-22T09:44:11.491Z,28.10
2018-04-22T09:46:40.331Z,28.30
2018-04-22T09:51:40.333Z,28.60
2018-04-22T09:54:08.351Z,28.40
2018-04-22T09:56:36.931Z,28.20
2018-04-22T09:59:05.650Z,28.20
2018-04-22T10:01:36.904Z,28.20
2018-04-22T10:04:12.495Z,28.30
2018-04-22T10:06:40.377Z,28.30
2018-04-22T10:09:08.442Z,28.20
2018-04-22T10:11:36.257Z,28.10
2018-04-22T10:14:04.095Z,28.00
2018-04-22T10:16:31.991Z,28.00
2018-04-22T10:18:59.815Z,28.00
2018-04-22T10:21:28.053Z,28.00
2018-04-22T10:23:55.436Z,27.40
2018-04-22T10:26:23.631Z,26.80
2018-04-22T10:28:51.251Z,26.80
2018-04-22T10:31:19.130Z,26.90
2018-04-22T10:33:46.975Z,27.00
2018-04-22T10:36:15.054Z,26.80
2018-04-22T10:38:42.354Z,26.80
2018-04-22T10:41:10.130Z,27.00
2018-04-22T10:43:37.734Z,27.30
2018-04-22T10:46:05.810Z,27.40
2018-04-22T10:48:34.290Z,27.50
2018-04-22T10:51:03.151Z,27.70
2018-04-22T10:53:30.989Z,27.80
2018-04-22T10:55:58.489Z,27.80
2018-04-22T10:58:26.310Z,27.80
2018-04-22T11:00:53.752Z,27.90
2018-04-22T11:03:21.198Z,27.90
2018-04-22T11:05:49.133Z,28.00
2018-04-22T11:08:17.134Z,28.00
2018-04-22T11:10:45.153Z,27.90
2018-04-22T11:13:12.533Z,27.80
2018-04-22T11:15:40.441Z,27.90
2018-04-22T11:18:08.433Z,27.90
2018-04-22T11:20:36.292Z,28.00
2018-04-22T11:23:04.234Z,27.90
2018-04-22T11:25:32.114Z,27.70
2018-04-22T11:28:00.014Z,27.70
2018-04-22T11:30:27.993Z,27.70
2018-04-22T11:32:55.992Z,27.70
2018-04-22T11:35:24.032Z,27.60
2018-04-22T11:37:51.821Z,27.60
2018-04-22T11:40:19.890Z,27.50
2018-04-22T11:42:47.650Z,27.50
2018-04-22T11:45:15.569Z,27.40
2018-04-22T11:47:44.395Z,27.40
2018-04-22T11:50:12.550Z,27.40
2018-04-22T11:52:40.418Z,27.50
2018-04-22T11:55:08.289Z,27.60
2018-04-22T11:57:36.289Z,27.50
2018-04-22T12:00:04.804Z,27.40
2018-04-22T12:02:32.670Z,27.50
2018-04-22T12:05:04.471Z,27.50
2018-04-22T12:07:32.490Z,27.50
2018-04-22T12:10:00.390Z,27.60
2018-04-22T12:12:28.338Z,27.60
2018-04-22T12:14:56.238Z,27.60
2018-04-22T12:17:24.210Z,27.60
2018-04-22T12:19:52.179Z,27.70
2018-04-22T12:22:20.070Z,27.80
2018-04-22T12:24:50.291Z,27.90
2018-04-22T12:27:18.252Z,27.90
2018-04-22T12:29:46.150Z,27.80
2018-04-22T12:32:13.971Z,27.80
2018-04-22T12:34:41.931Z,27.80
2018-04-22T12:37:09.894Z,27.80
2018-04-22T12:39:39.510Z,27.80
2018-04-22T12:42:07.509Z,27.80
2018-04-22T12:44:35.509Z,27.80
2018-04-22T12:47:03.869Z,27.60
2018-04-22T12:49:31.749Z,27.40
2018-04-22T12:52:00.469Z,27.50
2018-04-22T12:54:28.529Z,27.40
2018-04-22T12:56:56.689Z,27.50
2018-04-22T12:59:24.710Z,27.60
2018-04-22T13:01:53.137Z,27.70
2018-04-22T13:04:21.069Z,27.70
2018-04-22T13:06:49.012Z,27.70
2018-04-22T13:09:17.053Z,27.70
2018-04-22T13:11:45.169Z,27.70
2018-04-22T13:14:12.989Z,27.60
2018-04-22T13:16:40.930Z,27.60
2018-04-22T13:19:08.849Z,27.50
2018-04-22T13:21:38.229Z,27.30
2018-04-22T13:24:06.128Z,27.20
2018-04-22T13:26:34.069Z,27.30
2018-04-22T13:29:01.989Z,27.40
2018-04-22T13:31:29.969Z,27.40
2018-04-22T13:33:58.292Z,27.30
2018-04-22T13:36:26.599Z,27.10
2018-04-22T13:38:54.468Z,26.90
2018-04-22T13:41:22.435Z,26.80
2018-04-22T13:43:50.409Z,26.60
2018-04-22T13:46:18.215Z,26.60
2018-04-22T13:48:46.191Z,26.50
2018-04-22T13:51:15.171Z,26.40
2018-04-22T13:53:43.129Z,26.30
2018-04-22T13:56:11.852Z,26.50
2018-04-22T13:58:39.630Z,26.50
2018-04-22T14:01:07.529Z,26.50
2018-04-22T14:03:35.761Z,26.40
2018-04-22T14:06:03.811Z,26.20
2018-04-22T14:08:31.789Z,26.30
2018-04-22T14:10:59.651Z,26.40
2018-04-22T14:13:27.630Z,26.50
2018-04-22T14:15:55.671Z,26.40
2018-04-22T14:18:23.630Z,26.50
2018-04-22T14:20:51.849Z,26.50
2018-04-22T14:23:20.970Z,26.50
2018-04-22T14:25:49.068Z,26.50
2018-04-22T14:28:17.429Z,26.50
2018-04-22T14:30:45.269Z,26.50
2018-04-22T14:33:13.188Z,26.50
2018-04-22T14:35:41.089Z,26.50
2018-04-22T14:38:08.941Z,26.50
2018-04-22T14:40:36.888Z,26.40
2018-04-22T14:43:05.556Z,26.40
2018-04-22T14:45:45.288Z,26.40
2018-04-22T14:48:13.509Z,26.20
2018-04-22T14:50:41.453Z,26.00
2018-04-22T14:53:09.488Z,26.10
2018-04-22T14:55:37.449Z,26.00
2018-04-22T14:58:05.248Z,25.90
2018-04-22T15:00:33.092Z,25.90
2018-04-22T15:03:01.533Z,25.80
2018-04-22T15:05:29.597Z,25.70
2018-04-22T15:07:58.133Z,25.80
2018-04-22T15:10:26.121Z,25.90
2018-04-22T15:12:54.134Z,25.90
2018-04-22T15:15:22.354Z,26.00
2018-04-22T15:17:50.214Z,26.10
2018-04-22T15:20:18.274Z,26.00
2018-04-22T15:22:47.214Z,26.00
2018-04-22T15:25:15.235Z,26.00
2018-04-22T15:27:43.130Z,26.00
2018-04-22T15:30:11.070Z,26.00
2018-04-22T15:32:38.911Z,25.90
2018-04-22T15:35:06.750Z,25.90
2018-04-22T15:37:34.709Z,25.60
2018-04-22T15:40:02.710Z,25.50
2018-04-22T15:42:30.629Z,25.40
2018-04-22T15:44:58.634Z,25.30
2018-04-22T15:47:26.930Z,25.20
2018-04-22T15:49:54.932Z,25.10
2018-04-22T15:52:22.892Z,25.00
2018-04-22T15:54:50.931Z,25.00
2018-04-22T15:57:18.899Z,24.90
2018-04-22T15:59:46.712Z,24.90
2018-04-22T16:02:14.776Z,24.90
2018-04-22T16:04:42.850Z,24.90
2018-04-22T16:07:10.750Z,24.90
2018-04-22T16:09:39.255Z,25.00
2018-04-22T16:12:07.269Z,25.00
2018-04-22T16:14:35.601Z,24.90
2018-04-22T16:17:03.450Z,24.90
2018-04-22T16:19:31.529Z,24.90
2018-04-22T16:21:59.410Z,24.90
2018-04-22T16:24:27.348Z,24.80
2018-04-22T16:26:55.409Z,24.80
2018-04-22T16:29:23.288Z,24.70
2018-04-22T16:31:51.269Z,24.70
2018-04-22T16:34:19.948Z,24.50
2018-04-22T16:36:47.888Z,24.40
2018-04-22T16:39:16.008Z,24.40
2018-04-22T16:41:44.050Z,24.30
2018-04-22T16:44:12.070Z,24.30
2018-04-22T16:46:39.961Z,24.30
2018-04-22T16:49:07.911Z,24.20
2018-04-22T16:51:35.789Z,24.10
2018-04-22T16:54:04.590Z,24.00
2018-04-22T16:56:32.468Z,24.00
2018-04-22T16:59:00.328Z,23.90
2018-04-22T17:01:28.275Z,23.80
2018-04-22T17:03:56.175Z,23.80
2018-04-22T17:06:24.417Z,23.70
2018-04-22T17:08:54.147Z,23.60
2018-04-22T17:11:21.949Z,23.60
2018-04-22T17:13:49.906Z,23.60
2018-04-22T17:16:18.189Z,23.60
2018-04-22T17:18:46.094Z,23.50
2018-04-22T17:21:14.013Z,23.50
2018-04-22T17:23:43.101Z,23.50
2018-04-22T17:26:10.981Z,23.40
2018-04-22T17:28:38.393Z,23.40
2018-04-22T17:31:06.330Z,23.30
2018-04-22T17:33:34.169Z,23.30
2018-04-22T17:36:01.649Z,23.20
2018-04-22T17:38:29.170Z,23.30
2018-04-22T17:40:57.169Z,23.20
2018-04-22T17:43:25.489Z,23.20
2018-04-22T17:45:53.370Z,23.10
2018-04-22T17:48:21.469Z,23.10
2018-04-22T17:50:49.549Z,23.00
2018-04-22T17:53:17.489Z,23.00
2018-04-22T17:55:46.170Z,22.90
2018-04-22T17:58:14.891Z,22.80
2018-04-22T18:00:42.945Z,22.80
2018-04-22T18:03:10.873Z,22.70
2018-04-22T18:05:39.295Z,22.70
2018-04-22T18:08:07.174Z,22.60
2018-04-22T18:10:35.213Z,22.60
2018-04-22T18:13:03.013Z,22.50
2018-04-22T18:15:31.828Z,22.50
2018-04-22T18:17:59.968Z,22.50
2018-04-22T18:20:27.916Z,22.50
2018-04-22T18:22:55.641Z,22.40
2018-04-22T18:25:24.300Z,22.40
2018-04-22T18:27:52.190Z,22.40
2018-04-22T18:30:20.107Z,22.30
2018-04-22T18:32:48.033Z,22.30
2018-04-22T18:35:17.215Z,22.20
2018-04-22T18:37:45.130Z,22.20
2018-04-22T18:40:12.971Z,22.10
2018-04-22T18:42:41.735Z,22.00
2018-04-22T18:45:09.652Z,21.90
2018-04-22T18:47:37.672Z,21.90
2018-04-22T18:50:05.512Z,22.00
2018-04-22T18:52:33.657Z,22.10
2018-04-22T18:55:01.734Z,22.00
2018-04-22T18:57:30.294Z,22.00
2018-04-22T19:00:00.759Z,21.90
2018-04-22T19:02:30.389Z,21.80
2018-04-22T19:04:58.376Z,21.70
2018-04-22T19:07:26.449Z,21.60
2018-04-22T19:09:54.670Z,21.40
2018-04-22T19:12:22.589Z,20.90
2018-04-22T19:14:50.610Z,20.40
2018-04-22T19:17:18.951Z,20.10
2018-04-22T19:19:46.949Z,19.80
2018-04-22T19:22:15.031Z,19.70
2018-04-22T19:24:42.970Z,19.70
2018-04-22T19:27:10.970Z,19.80
2018-04-22T19:29:41.349Z,19.90
2018-04-22T19:32:09.409Z,19.90
2018-04-22T19:34:37.368Z,20.00
2018-04-22T19:37:05.291Z,20.10
2018-04-22T19:39:33.449Z,20.20
2018-04-22T19:42:01.455Z,20.20
2018-04-22T19:44:29.488Z,20.30
2018-04-22T19:46:57.368Z,20.30
2018-04-22T19:49:25.509Z,20.30
2018-04-22T19:51:53.453Z,20.30
2018-04-22T19:54:21.428Z,20.30
2018-04-22T19:59:21.595Z,20.40
2018-04-22T20:01:50.052Z,20.30
2018-04-22T20:04:18.074Z,20.20
2018-04-22T20:06:45.929Z,20.20
2018-04-22T20:09:13.774Z,20.10
2018-04-22T20:11:41.734Z,20.10
2018-04-22T20:14:09.808Z,20.10
2018-04-22T20:16:38.148Z,20.10
2018-04-22T20:19:05.848Z,20.20
2018-04-22T20:21:33.594Z,20.20
2018-04-22T20:24:01.851Z,20.30
2018-04-22T20:26:29.851Z,20.20
2018-04-22T20:28:57.771Z,20.30
2018-04-22T20:33:57.846Z,20.30
2018-04-22T20:36:25.750Z,20.20
2018-04-22T20:38:54.050Z,20.20
2018-04-22T20:41:24.283Z,20.10
2018-04-22T20:43:52.333Z,20.10
2018-04-22T20:46:20.107Z,20.10
2018-04-22T20:48:48.012Z,20.00
2018-04-22T20:51:15.991Z,19.90
2018-04-22T20:53:44.033Z,19.90
2018-04-22T20:56:11.869Z,19.90
2018-04-22T20:58:39.770Z,19.90
2018-04-22T21:01:07.651Z,20.00
2018-04-22T21:03:35.631Z,20.10
2018-04-22T21:06:03.977Z,20.30
2018-04-22T21:08:31.930Z,20.40
2018-04-22T21:10:59.890Z,20.40
2018-04-22T21:13:27.851Z,20.40
2018-04-22T21:15:55.890Z,20.30
2018-04-22T21:18:25.230Z,20.20
2018-04-22T21:20:53.209Z,20.20
2018-04-22T21:23:21.268Z,20.20
2018-04-22T21:25:49.269Z,20.20
2018-04-22T21:28:17.657Z,20.20
2018-04-22T21:30:45.712Z,20.20
2018-04-22T21:33:13.849Z,20.20
2018-04-22T21:35:41.758Z,20.20
2018-04-22T21:38:09.790Z,20.20
2018-04-22T21:40:37.790Z,20.30
2018-04-22T21:43:05.769Z,20.40
2018-04-22T21:45:33.890Z,20.50
2018-04-22T21:48:01.955Z,20.40
2018-04-22T21:50:30.189Z,20.30
2018-04-22T21:52:58.193Z,20.10
2018-04-22T21:55:26.210Z,19.90
2018-04-22T21:57:54.210Z,19.60
2018-04-22T22:00:21.941Z,19.40
2018-04-22T22:02:49.850Z,19.30
2018-04-22T22:05:17.790Z,19.20
2018-04-22T22:07:45.770Z,19.10
2018-04-22T22:10:13.766Z,19.10
2018-04-22T22:12:41.750Z,19.10
2018-04-22T22:17:41.710Z,19.10
2018-04-22T22:20:09.800Z,19.10
2018-04-22T22:22:37.810Z,19.10
2018-04-22T22:25:05.932Z,19.10
2018-04-22T22:27:33.858Z,19.10
2018-04-22T22:30:01.973Z,19.10
2018-04-22T22:32:30.033Z,19.10
2018-04-22T22:34:58.191Z,19.00
2018-04-22T22:37:26.451Z,19.00
2018-04-22T22:39:54.471Z,19.00
2018-04-22T22:42:22.500Z,19.00
2018-04-22T22:44:50.611Z,18.90
2018-04-22T22:47:20.319Z,18.80
2018-04-22T22:49:48.329Z,18.80
2018-04-22T22:52:16.249Z,18.70
2018-04-22T22:54:44.229Z,18.60
2018-04-22T22:57:12.174Z,18.50
2018-04-22T22:59:40.189Z,18.50
2018-04-22T23:02:09.010Z,18.40
2018-04-22T23:04:37.099Z,18.40
2018-04-22T23:07:05.070Z,18.40
2018-04-22T23:09:32.910Z,18.40
2018-04-22T23:12:00.731Z,18.40
2018-04-22T23:14:28.770Z,18.40
2018-04-22T23:16:57.012Z,18.40
2018-04-22T23:19:25.810Z,18.40
2018-04-22T23:21:53.770Z,18.30
2018-04-22T23:24:21.769Z,18.40
2018-04-22T23:26:49.650Z,18.30
2018-04-22T23:29:17.512Z,18.20
2018-04-22T23:31:45.490Z,18.20
2018-04-22T23:34:13.450Z,18.10
2018-04-22T23:36:41.643Z,18.10
2018-04-22T23:39:09.651Z,18.00
2018-04-22T23:41:37.930Z,17.90
2018-04-22T23:44:08.630Z,17.90
2018-04-22T23:46:36.850Z,17.90
2018-04-22T23:49:04.950Z,17.80
2018-04-22T23:51:32.850Z,17.80
2018-04-22T23:54:00.810Z,17.70
2018-04-22T23:56:28.709Z,17.60
2018-04-22T23:58:57.611Z,17.50
